Time;durP1;ratioP1;P1;durP2;ratioP2;P2;SDS_P1;SDS_P2;PMS_P1;PMS_P2;Temp;Humidity;BMP_temperature;BMP_pressure;BME280_temperature;BME280_humidity;BME280_pressure;Samples;Min_cycle;Max_cycle;Signal;HPM_P1;HPM_P2
2023/05/01 00:00:52;;;;;;;10.77;3.95;;;11.30;91.30;;;;;;5066925;28;20548;-86
2023/05/01 00:03:18;;;;;;;9.85;3.65;;;11.30;91.30;;;;;;5069567;28;20040;-86
2023/05/01 00:05:44;;;;;;;8.30;3.63;;;11.20;91.30;;;;;;5068252;28;20032;-86
2023/05/01 00:08:10;;;;;;;10.25;3.95;;;11.20;91.40;;;;;;5034326;28;20083;-86
2023/05/01 00:10:36;;;;;;;9.55;3.95;;;11.20;91.80;;;;;;5052362;28;20072;-86
2023/05/01 00:13:02;;;;;;;10.57;3.65;;;11.10;92.30;;;;;;5071946;28;20036;-86
2023/05/01 00:15:28;;;;;;;9.05;4.07;;;11.10;92.40;;;;;;5072285;28;20089;-86
2023/05/01 00:17:54;;;;;;;12.13;3.95;;;11.10;92.90;;;;;;5040896;28;20036;-86
2023/05/01 00:20:20;;;;;;;9.20;4.10;;;11.00;93.20;;;;;;5035435;28;20064;-86
2023/05/01 00:22:46;;;;;;;7.60;3.50;;;11.00;93.80;;;;;;5035429;28;20044;-86
2023/05/01 00:25:12;;;;;;;8.57;3.30;;;10.90;93.70;;;;;;5059864;28;20066;-86
2023/05/01 00:27:37;;;;;;;8.80;4.03;;;10.90;94.20;;;;;;5052024;28;20050;-86
2023/05/01 00:30:04;;;;;;;9.55;4.13;;;10.90;94.10;;;;;;5066292;28;20115;-86
2023/05/01 00:32:29;;;;;;;8.48;3.50;;;10.80;94.30;;;;;;5072335;28;20032;-86
2023/05/01 00:34:56;;;;;;;9.35;3.65;;;10.80;94.90;;;;;;5055020;28;20448;-86
2023/05/01 00:37:23;;;;;;;9.75;3.97;;;10.70;94.70;;;;;;5071472;28;20063;-86
2023/05/01 00:39:48;;;;;;;8.80;3.60;;;10.70;94.80;;;;;;5054577;28;20082;-86
2023/05/01 00:42:14;;;;;;;11.60;4.15;;;10.70;95.10;;;;;;5055133;28;20075;-86
2023/05/01 00:44:40;;;;;;;10.38;3.85;;;10.60;95.20;;;;;;5051842;28;20083;-86
2023/05/01 00:47:05;;;;;;;8.77;3.38;;;10.60;95.10;;;;;;5051239;28;20076;-86
2023/05/01 00:49:31;;;;;;;8.48;3.67;;;10.60;95.10;;;;;;5065045;28;20055;-85
2023/05/01 00:51:57;;;;;;;9.82;3.58;;;10.60;95.10;;;;;;5071934;28;20036;-86
2023/05/01 00:54:24;;;;;;;9.18;3.60;;;10.50;95.10;;;;;;5066135;28;20052;-86
2023/05/01 00:56:51;;;;;;;8.90;3.40;;;10.50;95.50;;;;;;5054222;28;20051;-85
2023/05/01 00:59:17;;;;;;;9.00;3.78;;;10.50;95.50;;;;;;5055218;28;20037;-85
2023/05/01 01:01:42;;;;;;;8.95;3.38;;;10.40;95.70;;;;;;5070916;28;20032;-86
2023/05/01 01:04:08;;;;;;;8.68;3.25;;;10.40;95.90;;;;;;5075283;28;20044;-86
2023/05/01 01:06:43;;;;;;;10.32;3.80;;;10.30;96.20;;;;;;5065700;28;20142;-86
2023/05/01 01:09:45;;;;;;;9.07;3.75;;;10.30;97.00;;;;;;5058994;28;20116;-86
2023/05/01 01:12:42;;;;;;;9.93;3.80;;;10.30;97.60;;;;;;5070354;28;20111;-86
2023/05/01 01:15:19;;;;;;;12.32;3.72;;;10.30;97.20;;;;;;5074731;28;20050;-86
2023/05/01 01:18:14;;;;;;;11.95;4.28;;;10.20;96.20;;;;;;5074985;28;20032;-86
2023/05/01 01:20:54;;;;;;;10.38;3.90;;;10.20;97.70;;;;;;5073935;28;20044;-86
2023/05/01 01:23:40;;;;;;;10.85;4.05;;;10.20;97.20;;;;;;5072992;28;20040;-86
2023/05/01 01:26:17;;;;;;;12.68;3.88;;;10.10;96.60;;;;;;5039919;28;20116;-85
2023/05/01 01:29:01;;;;;;;12.07;3.97;;;10.10;96.70;;;;;;5059925;28;20166;-85
2023/05/01 01:31:45;;;;;;;9.82;3.65;;;10.00;96.50;;;;;;5071309;28;20090;-86
2023/05/01 01:34:22;;;;;;;11.55;3.05;;;10.00;97.50;;;;;;5055100;28;20108;-85
2023/05/01 01:37:03;;;;;;;10.40;3.25;;;9.90;97.00;;;;;;5073504;28;20062;-85
2023/05/01 01:39:57;;;;;;;9.05;3.53;;;9.80;96.90;;;;;;5062886;28;20164;-86
2023/05/01 01:42:29;;;;;;;7.03;3.13;;;9.70;96.90;;;;;;5063758;28;20078;-85
2023/05/01 01:44:58;;;;;;;7.53;2.78;;;9.50;96.60;;;;;;5065320;28;20047;-86
2023/05/01 01:47:30;;;;;;;10.77;3.42;;;9.40;96.80;;;;;;5067374;28;20036;-85
2023/05/01 01:50:00;;;;;;;8.90;3.10;;;9.30;97.10;;;;;;5053984;28;20044;-85
2023/05/01 01:52:28;;;;;;;8.18;3.55;;;9.30;97.50;;;;;;5054198;28;20546;-85
2023/05/01 01:55:16;;;;;;;9.50;3.33;;;9.20;97.50;;;;;;5054281;28;20068;-86
2023/05/01 01:57:44;;;;;;;9.70;3.35;;;9.20;98.20;;;;;;5074076;28;20493;-85
2023/05/01 02:00:12;;;;;;;9.73;3.78;;;9.20;98.20;;;;;;5063864;28;20082;-86
2023/05/01 02:02:39;;;;;;;9.70;3.33;;;9.20;98.60;;;;;;5057495;28;20036;-86
2023/05/01 02:05:14;;;;;;;7.88;3.55;;;9.20;98.80;;;;;;5064071;28;20036;-85
2023/05/01 02:07:40;;;;;;;10.90;4.13;;;9.20;99.50;;;;;;5055776;28;20044;-86
2023/05/01 02:10:10;;;;;;;9.75;3.88;;;9.20;99.60;;;;;;5072762;28;20089;-85
2023/05/01 02:12:36;;;;;;;12.32;4.13;;;9.20;99.80;;;;;;5065026;28;20089;-86
2023/05/01 02:15:05;;;;;;;8.73;3.35;;;9.10;99.80;;;;;;5074113;28;20039;-85
2023/05/01 02:17:31;;;;;;;8.57;3.55;;;9.10;99.90;;;;;;5071452;28;20063;-85
2023/05/01 02:19:58;;;;;;;8.77;3.72;;;9.00;99.90;;;;;;5036910;28;20117;-85
2023/05/01 02:22:25;;;;;;;9.27;3.55;;;8.90;99.90;;;;;;5062293;28;20433;-86
2023/05/01 02:24:53;;;;;;;8.10;3.70;;;8.90;99.90;;;;;;5072934;28;20047;-86
2023/05/01 02:27:35;;;;;;;9.40;3.40;;;8.90;99.90;;;;;;5066963;28;20547;-86
2023/05/01 02:30:00;;;;;;;10.48;3.33;;;8.80;99.90;;;;;;5053631;28;20085;-85
2023/05/01 02:32:27;;;;;;;10.18;3.38;;;8.80;99.90;;;;;;5053949;28;20119;-85
2023/05/01 02:34:53;;;;;;;11.50;3.65;;;8.80;99.90;;;;;;5058925;28;20028;-85
2023/05/01 02:37:19;;;;;;;7.93;3.00;;;8.80;99.90;;;;;;5073658;28;20040;-85
2023/05/01 02:39:45;;;;;;;9.52;3.35;;;8.70;99.90;;;;;;5066536;28;20044;-86
2023/05/01 02:42:14;;;;;;;11.02;3.92;;;8.80;99.90;;;;;;5070074;28;20044;-85
2023/05/01 02:44:54;;;;;;;11.88;4.18;;;8.80;99.90;;;;;;5056887;28;20097;-85
2023/05/01 02:47:22;;;;;;;8.27;3.47;;;8.80;99.90;;;;;;5072764;28;20044;-85
2023/05/01 02:49:48;;;;;;;11.85;3.53;;;8.80;99.90;;;;;;5073732;28;20043;-85
2023/05/01 02:52:16;;;;;;;9.38;3.95;;;8.80;99.90;;;;;;5072338;28;20120;-85
2023/05/01 02:54:44;;;;;;;11.52;3.70;;;8.80;99.90;;;;;;5036833;28;20394;-85
2023/05/01 02:57:10;;;;;;;8.30;3.35;;;8.80;99.90;;;;;;5036848;28;20197;-85
2023/05/01 02:59:36;;;;;;;10.05;3.97;;;8.80;99.90;;;;;;5052965;28;20045;-85
2023/05/01 03:02:01;;;;;;;10.35;3.85;;;8.90;99.90;;;;;;5052944;28;20421;-85
2023/05/01 03:04:27;;;;;;;12.77;4.07;;;8.90;99.90;;;;;;5053173;28;20048;-85
2023/05/01 03:06:54;;;;;;;11.50;3.85;;;8.80;99.90;;;;;;5036076;28;20036;-85
2023/05/01 03:09:20;;;;;;;11.23;3.80;;;8.90;99.90;;;;;;5071443;28;20032;-86
2023/05/01 03:11:46;;;;;;;10.93;4.10;;;8.90;99.90;;;;;;5072630;28;20032;-86
2023/05/01 03:14:12;;;;;;;10.55;3.90;;;8.90;99.90;;;;;;5063879;28;20024;-85
2023/05/01 03:16:37;;;;;;;10.90;3.92;;;8.90;99.90;;;;;;5073242;28;20081;-86
2023/05/01 03:19:04;;;;;;;9.85;3.70;;;8.90;99.90;;;;;;5050047;28;20500;-86
2023/05/01 03:21:30;;;;;;;8.75;4.05;;;8.80;99.90;;;;;;5052441;28;20116;-86
2023/05/01 03:23:56;;;;;;;10.65;4.13;;;8.80;99.90;;;;;;5052944;28;20072;-86
2023/05/01 03:26:22;;;;;;;16.35;4.45;;;8.80;99.90;;;;;;5064253;28;20124;-86
2023/05/01 03:28:47;;;;;;;9.00;3.88;;;8.80;99.90;;;;;;5073249;28;20036;-86
2023/05/01 03:31:13;;;;;;;10.20;4.30;;;8.80;99.90;;;;;;5072355;28;20446;-86
2023/05/01 03:33:39;;;;;;;8.68;3.83;;;8.80;99.90;;;;;;5054883;28;20036;-86
2023/05/01 03:36:05;;;;;;;10.43;4.45;;;8.80;99.90;;;;;;5055344;28;20142;-85
2023/05/01 03:38:31;;;;;;;10.10;4.00;;;8.80;99.90;;;;;;5043927;28;20153;-85
2023/05/01 03:40:58;;;;;;;10.55;3.60;;;8.80;99.90;;;;;;5035718;28;20139;-85
2023/05/01 03:43:24;;;;;;;11.02;4.40;;;8.80;99.90;;;;;;5060383;28;20044;-85
2023/05/01 03:45:51;;;;;;;11.02;4.22;;;8.80;99.90;;;;;;5052494;28;20068;-85
2023/05/01 03:48:17;;;;;;;15.10;4.88;;;8.80;99.90;;;;;;5035314;28;20548;-85
2023/05/01 03:50:43;;;;;;;12.75;4.63;;;8.80;99.90;;;;;;5051966;28;20498;-85
2023/05/01 03:53:09;;;;;;;11.38;4.50;;;8.70;99.90;;;;;;5052845;28;20068;-85
2023/05/01 03:55:35;;;;;;;11.23;4.25;;;8.70;99.90;;;;;;5034475;28;20493;-86
2023/05/01 03:58:01;;;;;;;13.52;4.70;;;8.70;99.90;;;;;;5052129;28;20048;-85
2023/05/01 04:00:27;;;;;;;9.35;3.70;;;8.70;99.90;;;;;;5035226;28;20036;-85
2023/05/01 04:02:53;;;;;;;11.60;3.90;;;8.60;99.90;;;;;;5051924;28;20048;-85
2023/05/01 04:05:20;;;;;;;10.48;3.97;;;8.70;99.90;;;;;;5035417;28;20056;-86
2023/05/01 04:07:46;;;;;;;11.73;4.00;;;8.60;99.90;;;;;;5060110;28;20041;-86
2023/05/01 04:10:11;;;;;;;11.40;4.40;;;8.60;99.90;;;;;;5035599;28;20035;-86
2023/05/01 04:12:37;;;;;;;9.00;3.88;;;8.60;99.90;;;;;;5060818;28;20036;-85
2023/05/01 04:15:03;;;;;;;15.95;4.45;;;8.50;99.90;;;;;;5035821;28;20041;-85
2023/05/01 04:17:29;;;;;;;11.32;4.30;;;8.60;99.90;;;;;;5051700;28;20089;-85
2023/05/01 04:19:54;;;;;;;14.60;4.93;;;8.60;99.90;;;;;;5067997;28;20044;-85
2023/05/01 04:22:23;;;;;;;11.63;4.63;;;8.60;99.90;;;;;;5071304;28;20501;-85
2023/05/01 04:24:50;;;;;;;9.90;4.28;;;8.60;99.90;;;;;;5070468;28;20541;-85
2023/05/01 04:27:16;;;;;;;9.50;4.38;;;8.60;99.90;;;;;;5054576;28;20036;-85
2023/05/01 04:29:42;;;;;;;12.60;4.65;;;8.60;99.90;;;;;;5071408;28;20575;-86
2023/05/01 04:32:07;;;;;;;10.02;5.03;;;8.60;99.90;;;;;;5058241;28;20036;-86
2023/05/01 04:34:33;;;;;;;10.82;4.97;;;8.70;99.90;;;;;;5075348;28;20143;-85
2023/05/01 04:36:58;;;;;;;10.95;5.00;;;8.70;99.90;;;;;;5057758;28;20032;-85
2023/05/01 04:39:24;;;;;;;12.10;4.95;;;8.70;99.90;;;;;;5055443;28;20102;-86
2023/05/01 04:41:50;;;;;;;12.18;5.25;;;8.70;99.90;;;;;;5038905;28;20554;-86
2023/05/01 04:44:15;;;;;;;10.70;4.25;;;8.70;99.90;;;;;;5046876;28;20551;-85
2023/05/01 04:46:41;;;;;;;10.32;4.90;;;8.80;99.90;;;;;;5055240;28;20124;-85
2023/05/01 04:49:08;;;;;;;10.52;4.43;;;8.80;99.90;;;;;;5043814;28;20452;-86
2023/05/01 04:51:33;;;;;;;13.05;4.63;;;8.80;99.90;;;;;;5074912;28;20044;-85
2023/05/01 04:53:59;;;;;;;14.05;4.22;;;8.80;99.90;;;;;;5059041;28;20036;-85
2023/05/01 04:56:25;;;;;;;9.80;4.18;;;8.80;99.90;;;;;;5063335;28;20033;-85
2023/05/01 04:58:51;;;;;;;10.13;4.43;;;8.80;99.90;;;;;;5059271;28;20123;-86
2023/05/01 05:01:17;;;;;;;11.20;4.00;;;8.90;99.90;;;;;;5074854;28;20468;-85
2023/05/01 05:03:43;;;;;;;15.23;4.55;;;8.90;99.90;;;;;;5044439;28;20032;-85
2023/05/01 05:06:08;;;;;;;11.40;4.18;;;8.90;99.90;;;;;;5054929;28;20051;-85
2023/05/01 05:08:34;;;;;;;12.55;5.35;;;9.00;99.90;;;;;;5038157;28;20517;-85
2023/05/01 05:11:00;;;;;;;12.05;5.03;;;9.00;99.90;;;;;;5074478;28;20063;-86
2023/05/01 05:13:26;;;;;;;11.75;4.35;;;9.10;99.90;;;;;;5075376;28;20519;-86
2023/05/01 05:15:52;;;;;;;12.05;5.20;;;9.10;99.90;;;;;;5065707;28;20039;-85
2023/05/01 05:18:17;;;;;;;11.65;4.95;;;9.20;99.90;;;;;;5058378;28;20036;-86
2023/05/01 05:20:43;;;;;;;10.90;4.47;;;9.20;99.90;;;;;;5074891;28;20040;-86
2023/05/01 05:23:09;;;;;;;12.02;4.45;;;9.20;99.90;;;;;;5066428;28;20032;-86
2023/05/01 05:25:35;;;;;;;12.00;5.55;;;9.30;99.90;;;;;;5054664;28;20043;-85
2023/05/01 05:28:00;;;;;;;10.73;4.68;;;9.30;99.90;;;;;;5054552;28;20098;-85
2023/05/01 05:30:26;;;;;;;10.75;4.95;;;9.30;99.90;;;;;;5052451;28;20032;-86
2023/05/01 05:32:52;;;;;;;12.20;4.57;;;9.40;99.90;;;;;;5056633;28;20119;-86
2023/05/01 05:35:18;;;;;;;9.27;4.50;;;9.40;99.90;;;;;;5072799;28;20034;-86
2023/05/01 05:37:43;;;;;;;10.65;4.65;;;9.50;99.90;;;;;;5053829;28;20090;-86
2023/05/01 05:40:09;;;;;;;12.85;4.60;;;9.50;99.90;;;;;;5036457;28;20040;-86
2023/05/01 05:42:35;;;;;;;12.35;5.10;;;9.60;99.90;;;;;;5034179;28;20099;-86
2023/05/01 05:45:01;;;;;;;10.15;4.78;;;9.60;99.90;;;;;;5051113;28;20098;-85
2023/05/01 05:47:26;;;;;;;10.27;5.10;;;9.70;99.90;;;;;;5052821;28;20047;-86
2023/05/01 05:49:54;;;;;;;12.50;4.95;;;9.70;99.90;;;;;;5070644;28;20459;-86
2023/05/01 05:52:20;;;;;;;11.43;5.18;;;9.80;99.90;;;;;;5055137;28;20042;-86
2023/05/01 05:54:46;;;;;;;12.15;5.43;;;9.80;99.90;;;;;;5072567;28;20086;-86
2023/05/01 05:57:11;;;;;;;12.02;4.40;;;9.90;99.90;;;;;;5071583;28;20043;-86
2023/05/01 05:59:37;;;;;;;12.15;4.95;;;9.90;99.90;;;;;;5064185;28;20520;-86
2023/05/01 06:02:03;;;;;;;11.95;5.43;;;10.00;99.90;;;;;;5056153;28;20075;-86
2023/05/01 06:04:28;;;;;;;15.70;5.00;;;10.00;99.90;;;;;;5072323;28;20502;-86
2023/05/01 06:06:54;;;;;;;10.75;5.18;;;10.00;99.90;;;;;;5056568;28;20044;-86
2023/05/01 06:09:20;;;;;;;14.20;5.60;;;10.10;99.90;;;;;;5070921;28;20550;-86
2023/05/01 06:11:47;;;;;;;13.52;5.95;;;10.20;99.90;;;;;;5046712;28;20041;-86
2023/05/01 06:14:12;;;;;;;12.63;5.55;;;10.20;99.90;;;;;;5037084;28;20036;-86
2023/05/01 06:16:38;;;;;;;11.10;5.22;;;10.30;99.90;;;;;;5047044;28;20744;-86
2023/05/01 06:19:04;;;;;;;11.80;4.93;;;10.30;99.90;;;;;;5073085;28;20043;-86
2023/05/01 06:21:31;;;;;;;12.93;5.68;;;10.40;99.90;;;;;;5070240;28;20067;-86
2023/05/01 06:23:57;;;;;;;12.02;4.70;;;10.50;99.90;;;;;;5048980;28;20119;-86
2023/05/01 06:26:22;;;;;;;16.42;7.22;;;10.50;99.90;;;;;;5073324;28;20130;-87
2023/05/01 06:28:48;;;;;;;12.90;5.32;;;10.60;99.90;;;;;;5065762;28;20052;-86
2023/05/01 06:31:14;;;;;;;15.38;5.78;;;10.60;99.90;;;;;;5053171;28;20478;-87
2023/05/01 06:33:40;;;;;;;13.55;5.32;;;10.70;99.90;;;;;;5053733;28;20051;-86
2023/05/01 06:36:05;;;;;;;15.70;5.60;;;10.80;99.90;;;;;;5045591;28;20405;-86
2023/05/01 06:38:34;;;;;;;10.77;4.82;;;10.90;99.90;;;;;;5037195;28;20082;-86
2023/05/01 06:41:00;;;;;;;14.05;5.15;;;11.00;99.90;;;;;;5061256;28;20068;-86
2023/05/01 06:43:29;;;;;;;10.32;4.95;;;11.10;99.90;;;;;;5053798;28;20079;-86
2023/05/01 06:45:55;;;;;;;10.15;3.70;;;11.20;99.90;;;;;;5043298;28;20397;-86
2023/05/01 06:48:21;;;;;;;12.27;3.90;;;11.30;99.90;;;;;;5056714;28;20047;-86
2023/05/01 06:50:46;;;;;;;10.85;4.15;;;11.40;98.10;;;;;;5056968;28;20043;-86
2023/05/01 06:53:12;;;;;;;12.43;4.60;;;11.50;97.20;;;;;;5044438;28;20509;-86
2023/05/01 06:55:38;;;;;;;12.20;4.75;;;11.50;96.10;;;;;;5062494;28;20057;-86
2023/05/01 06:58:05;;;;;;;14.00;5.57;;;11.50;95.50;;;;;;5073611;28;20031;-87
2023/05/01 07:00:31;;;;;;;10.75;4.15;;;11.60;95.20;;;;;;5066464;28;20137;-86
2023/05/01 07:02:56;;;;;;;10.95;4.47;;;11.70;94.90;;;;;;5071510;28;20066;-86
2023/05/01 07:05:22;;;;;;;10.65;4.65;;;11.70;94.40;;;;;;5070580;28;20047;-86
2023/05/01 07:07:48;;;;;;;9.52;4.47;;;11.80;94.10;;;;;;5047731;28;20040;-87
2023/05/01 07:10:14;;;;;;;12.63;5.13;;;11.80;94.30;;;;;;5071091;28;20063;-86
2023/05/01 07:12:40;;;;;;;11.55;4.78;;;11.80;94.30;;;;;;5068622;28;20469;-86
2023/05/01 07:15:06;;;;;;;9.77;4.88;;;11.90;93.70;;;;;;5045455;28;20028;-87
2023/05/01 07:17:32;;;;;;;10.32;4.40;;;11.90;93.20;;;;;;5063631;28;20044;-87
2023/05/01 07:19:59;;;;;;;11.48;4.15;;;11.90;93.00;;;;;;5052109;28;20119;-87
2023/05/01 07:22:25;;;;;;;11.50;4.32;;;12.00;93.10;;;;;;5035745;28;20041;-86
2023/05/01 07:24:50;;;;;;;11.90;4.93;;;12.00;92.80;;;;;;5063473;28;20085;-86
2023/05/01 07:27:16;;;;;;;10.48;4.85;;;12.00;92.20;;;;;;5055708;28;20080;-86
2023/05/01 07:29:42;;;;;;;12.15;4.85;;;12.00;92.40;;;;;;5072284;28;20040;-86
2023/05/01 07:32:07;;;;;;;13.52;4.95;;;12.10;92.30;;;;;;5043640;28;20036;-86
2023/05/01 07:34:33;;;;;;;12.20;7.65;;;12.20;92.20;;;;;;5051724;28;20453;-86
2023/05/01 07:36:59;;;;;;;12.90;5.05;;;12.30;92.20;;;;;;5059703;28;20098;-86
2023/05/01 07:39:25;;;;;;;12.32;4.85;;;12.30;91.40;;;;;;5051563;28;20040;-86
2023/05/01 07:41:50;;;;;;;13.55;5.63;;;12.30;91.70;;;;;;5078411;28;20118;-86
2023/05/01 07:44:16;;;;;;;12.07;6.03;;;12.40;91.80;;;;;;5072126;28;20134;-86
2023/05/01 07:46:42;;;;;;;12.27;7.55;;;12.50;91.80;;;;;;5071442;28;20128;-86
2023/05/01 07:49:07;;;;;;;13.60;7.53;;;12.60;91.50;;;;;;5052706;28;20036;-86
2023/05/01 07:51:33;;;;;;;11.70;5.22;;;12.70;91.30;;;;;;5035543;28;20033;-86
2023/05/01 07:54:03;;;;;;;11.70;4.68;;;12.70;91.00;;;;;;5046592;28;20039;-86
2023/05/01 07:56:31;;;;;;;11.93;4.68;;;12.70;90.90;;;;;;5054030;28;20156;-86
2023/05/01 07:58:57;;;;;;;10.70;4.70;;;12.80;91.20;;;;;;5074729;28;20044;-86
2023/05/01 08:01:23;;;;;;;11.13;5.30;;;12.80;91.40;;;;;;5081332;28;20035;-86
2023/05/01 08:03:49;;;;;;;14.82;6.32;;;12.90;91.80;;;;;;5082156;28;20043;-87
2023/05/01 08:06:14;;;;;;;11.48;5.68;;;12.90;91.30;;;;;;5082904;28;20043;-85
2023/05/01 08:08:40;;;;;;;12.80;7.18;;;13.00;90.30;;;;;;5085572;28;20065;-86
2023/05/01 08:11:05;;;;;;;12.23;5.40;;;13.20;88.70;;;;;;5070774;28;20032;-86
2023/05/01 08:13:31;;;;;;;9.88;4.95;;;13.20;88.60;;;;;;5084623;28;20390;-86
2023/05/01 08:16:01;;;;;;;13.35;7.50;;;13.30;88.90;;;;;;5078771;28;20028;-86
2023/05/01 08:18:27;;;;;;;11.88;6.63;;;13.40;87.00;;;;;;5069008;28;20040;-86
2023/05/01 08:20:53;;;;;;;13.23;5.50;;;13.50;84.40;;;;;;5074730;28;20390;-86
2023/05/01 08:23:18;;;;;;;12.93;5.00;;;13.50;84.40;;;;;;5065396;28;20048;-86
2023/05/01 08:25:49;;;;;;;11.70;5.22;;;13.60;85.20;;;;;;5063057;28;20067;-86
2023/05/01 08:28:16;;;;;;;13.70;4.65;;;13.60;84.80;;;;;;5085751;28;20051;-86
2023/05/01 08:30:43;;;;;;;14.63;5.10;;;13.70;85.30;;;;;;5068395;28;20096;-86
2023/05/01 08:33:08;;;;;;;12.48;7.28;;;13.80;85.10;;;;;;5081528;28;20036;-86
2023/05/01 08:35:34;;;;;;;14.48;7.68;;;13.90;85.40;;;;;;5078163;28;20032;-86
2023/05/01 08:38:00;;;;;;;13.20;7.45;;;14.00;84.20;;;;;;5078422;28;20036;-87
2023/05/01 08:40:26;;;;;;;13.93;5.43;;;14.20;84.50;;;;;;5070422;28;20521;-86
2023/05/01 08:42:53;;;;;;;11.15;6.40;;;14.20;83.80;;;;;;5047453;28;20087;-86
2023/05/01 08:45:22;;;;;;;11.63;5.40;;;14.30;83.00;;;;;;5074663;28;20040;-87
2023/05/01 08:47:49;;;;;;;11.30;5.57;;;14.30;82.70;;;;;;5073810;28;20040;-85
2023/05/01 08:50:16;;;;;;;13.82;5.32;;;14.30;83.40;;;;;;5073953;28;20094;-86
2023/05/01 08:52:42;;;;;;;12.20;7.47;;;14.40;83.30;;;;;;5074316;28;20066;-86
2023/05/01 08:55:14;;;;;;;10.07;5.43;;;14.50;83.40;;;;;;5062264;28;20043;-86
2023/05/01 08:57:48;;;;;;;14.93;7.75;;;14.50;83.00;;;;;;5057293;28;20051;-86
2023/05/01 09:00:20;;;;;;;12.07;5.75;;;14.50;82.20;;;;;;5064420;28;20033;-86
2023/05/01 09:02:50;;;;;;;10.70;4.45;;;14.50;82.60;;;;;;5060942;28;20064;-86
2023/05/01 09:05:17;;;;;;;12.40;7.25;;;14.50;82.20;;;;;;5064461;28;20032;-86
2023/05/01 09:07:45;;;;;;;12.05;5.18;;;14.60;82.30;;;;;;5078203;28;20032;-86
2023/05/01 09:10:12;;;;;;;10.95;5.32;;;14.60;82.20;;;;;;5058424;28;20028;-86
2023/05/01 09:12:40;;;;;;;11.15;6.68;;;14.60;82.50;;;;;;5083224;28;20028;-86
2023/05/01 09:15:07;;;;;;;14.52;6.25;;;14.70;81.10;;;;;;5056600;28;20067;-86
2023/05/01 09:17:34;;;;;;;12.25;7.32;;;14.80;81.10;;;;;;5072861;28;20040;-86
2023/05/01 09:20:03;;;;;;;12.13;7.13;;;14.90;81.30;;;;;;5056584;28;20052;-86
2023/05/01 09:22:30;;;;;;;12.90;7.57;;;15.00;81.30;;;;;;5037100;28;20089;-86
2023/05/01 09:24:56;;;;;;;13.88;6.50;;;15.10;81.80;;;;;;5062948;28;20054;-86
2023/05/01 09:27:22;;;;;;;11.98;8.10;;;15.10;82.70;;;;;;5059832;28;20045;-86
2023/05/01 09:29:47;;;;;;;13.23;7.18;;;15.30;83.40;;;;;;5056586;28;20409;-86
2023/05/01 09:32:20;;;;;;;10.63;6.60;;;15.40;81.60;;;;;;5090767;28;20028;-86
2023/05/01 09:34:50;;;;;;;10.40;5.43;;;15.50;82.00;;;;;;5072922;28;20066;-86
2023/05/01 09:37:26;;;;;;;11.52;6.55;;;15.60;82.10;;;;;;5074368;28;20043;-86
2023/05/01 09:40:08;;;;;;;11.55;7.10;;;15.70;82.70;;;;;;5057250;28;20123;-87
2023/05/01 09:42:39;;;;;;;12.55;7.57;;;15.80;81.80;;;;;;5071149;28;20041;-87
2023/05/01 09:45:15;;;;;;;11.02;5.57;;;16.00;81.00;;;;;;5038002;28;20089;-87
2023/05/01 09:47:42;;;;;;;10.93;6.90;;;16.00;80.90;;;;;;5056340;28;20040;-87
2023/05/01 09:50:09;;;;;;;11.13;5.47;;;16.10;81.70;;;;;;5056042;28;20497;-86
2023/05/01 09:52:34;;;;;;;10.77;6.10;;;16.20;80.40;;;;;;5046286;28;20033;-86
2023/05/01 09:55:16;;;;;;;11.93;6.47;;;16.40;78.90;;;;;;5037805;28;20028;-87
2023/05/01 09:57:44;;;;;;;12.45;6.35;;;16.60;75.90;;;;;;5044878;28;20066;-87
2023/05/01 10:00:11;;;;;;;10.70;6.00;;;16.70;76.00;;;;;;5056214;28;20036;-87
2023/05/01 10:02:37;;;;;;;10.85;5.60;;;16.80;77.70;;;;;;5072545;28;20083;-87
2023/05/01 10:05:04;;;;;;;10.13;5.90;;;17.00;76.80;;;;;;5053813;28;20052;-87
2023/05/01 10:07:30;;;;;;;12.77;6.25;;;17.10;75.00;;;;;;5055229;28;20033;-87
2023/05/01 10:09:55;;;;;;;9.73;4.95;;;17.20;74.90;;;;;;5058178;28;20430;-87
2023/05/01 10:12:25;;;;;;;9.95;4.38;;;17.20;73.10;;;;;;5036486;28;20040;-87
2023/05/01 10:14:55;;;;;;;8.52;4.43;;;17.30;71.10;;;;;;5038269;28;20037;-87
2023/05/01 10:17:21;;;;;;;11.20;5.28;;;17.40;70.60;;;;;;5073029;28;20503;-87
2023/05/01 10:19:48;;;;;;;11.65;5.30;;;17.40;71.00;;;;;;5073909;28;20036;-87
2023/05/01 10:22:15;;;;;;;9.02;4.75;;;17.50;70.90;;;;;;5046960;28;20067;-87
2023/05/01 10:24:42;;;;;;;12.75;5.43;;;17.60;71.00;;;;;;5052324;28;20118;-87
2023/05/01 10:27:09;;;;;;;11.68;5.10;;;17.60;70.70;;;;;;5049089;28;20036;-87
2023/05/01 10:29:38;;;;;;;12.43;5.40;;;17.80;72.10;;;;;;5053973;28;20542;-87
2023/05/01 10:32:08;;;;;;;10.57;5.20;;;17.90;70.50;;;;;;5073433;28;20119;-88
2023/05/01 10:34:42;;;;;;;11.43;5.25;;;17.90;70.60;;;;;;5073534;28;20040;-87
2023/05/01 10:41:38;;;;;;;9.40;4.30;;;18.10;71.80;;;;;;5034492;28;20430;-87
2023/05/01 10:45:11;;;;;;;9.02;4.18;;;18.30;69.20;;;;;;5034376;28;20049;-88
2023/05/01 10:47:43;;;;;;;9.82;4.30;;;18.50;69.00;;;;;;5023174;28;20050;-87
2023/05/01 10:50:10;;;;;;;9.18;4.43;;;18.70;67.10;;;;;;5009805;28;20444;-87
2023/05/01 10:53:10;;;;;;;10.13;3.42;;;18.80;67.30;;;;;;5011783;28;20084;-87
2023/05/01 10:55:44;;;;;;;7.68;2.40;;;19.00;65.80;;;;;;5028417;28;20045;-87
2023/05/01 10:58:11;;;;;;;7.38;2.30;;;19.00;60.90;;;;;;5010657;28;20034;-87
2023/05/01 11:00:39;;;;;;;9.85;2.78;;;19.00;60.40;;;;;;5046503;28;20049;-87
2023/05/01 11:03:20;;;;;;;9.05;2.95;;;19.00;60.30;;;;;;5009993;28;20041;-87
2023/05/01 11:06:03;;;;;;;7.63;2.92;;;19.00;60.50;;;;;;5043519;28;20037;-87
2023/05/01 11:08:33;;;;;;;8.77;4.28;;;19.10;63.40;;;;;;5043257;28;20551;-88
2023/05/01 11:11:21;;;;;;;10.85;5.00;;;19.40;63.80;;;;;;5027767;28;20041;-87
2023/05/01 11:13:56;;;;;;;10.07;3.58;;;19.70;64.10;;;;;;5012667;28;20040;-88
2023/05/01 11:16:38;;;;;;;8.48;3.40;;;20.00;63.50;;;;;;5045108;28;20683;-88
2023/05/01 11:19:04;;;;;;;8.63;3.45;;;20.20;62.00;;;;;;5026755;28;20135;-88
2023/05/01 11:21:34;;;;;;;8.10;3.38;;;20.40;61.00;;;;;;5004896;28;20041;-88
2023/05/01 11:24:00;;;;;;;8.32;3.40;;;20.50;60.70;;;;;;5013328;28;20076;-88
2023/05/01 11:26:27;;;;;;;9.52;3.30;;;20.70;61.90;;;;;;5024460;28;20037;-88
2023/05/01 11:28:56;;;;;;;10.63;4.00;;;20.90;61.50;;;;;;5012299;28;20088;-88
2023/05/01 11:31:23;;;;;;;8.85;3.35;;;21.10;60.10;;;;;;5044989;28;20048;-88
2023/05/01 11:33:48;;;;;;;8.80;3.13;;;21.20;60.00;;;;;;5044720;28;20047;-89
2023/05/01 11:36:14;;;;;;;8.98;3.67;;;21.40;61.40;;;;;;5010918;28;20038;-88
2023/05/01 11:38:50;;;;;;;9.93;4.45;;;21.40;60.50;;;;;;5010675;28;20041;-88
2023/05/01 11:41:22;;;;;;;9.43;3.97;;;21.60;61.60;;;;;;5025758;28;20041;-88
2023/05/01 11:43:56;;;;;;;9.25;4.38;;;21.70;59.40;;;;;;5043350;28;20065;-88
2023/05/01 11:46:27;;;;;;;8.98;3.85;;;21.60;59.70;;;;;;5044693;28;20116;-88
2023/05/01 11:48:57;;;;;;;9.55;4.05;;;21.70;58.70;;;;;;5045685;28;20064;-88
2023/05/01 11:51:26;;;;;;;10.13;3.83;;;21.80;58.20;;;;;;5045886;28;20041;-88
2023/05/01 11:54:05;;;;;;;8.63;3.67;;;22.00;57.70;;;;;;4994131;28;20049;-88
2023/05/01 11:56:33;;;;;;;8.70;3.30;;;22.10;56.90;;;;;;5024366;28;20041;-88
2023/05/01 11:59:10;;;;;;;7.80;2.88;;;22.10;58.50;;;;;;5026966;28;20037;-88
2023/05/01 12:01:42;;;;;;;8.65;2.58;;;22.20;58.40;;;;;;5024506;28;20046;-88
2023/05/01 12:04:07;;;;;;;7.22;2.50;;;22.40;58.50;;;;;;5025677;28;20049;-88
2023/05/01 12:06:42;;;;;;;7.72;2.17;;;22.80;58.30;;;;;;5025502;28;20045;-88
2023/05/01 12:09:10;;;;;;;7.38;2.33;;;23.10;56.80;;;;;;5029097;28;20126;-88
2023/05/01 12:11:37;;;;;;;7.82;2.00;;;23.20;56.50;;;;;;5003475;28;20045;-88
2023/05/01 12:14:04;;;;;;;7.22;2.10;;;23.50;56.40;;;;;;5045760;28;20750;-88
2023/05/01 12:24:37;;;;;;;6.90;2.42;;;22.90;55.80;;;;;;4987411;28;19956;-88
2023/05/01 12:27:54;;;;;;;7.68;2.03;;;22.80;53.30;;;;;;4853700;29;20049;-89
2023/05/01 12:31:08;;;;;;;7.68;2.53;;;22.80;55.50;;;;;;4837474;29;20492;-89
2023/05/01 12:34:38;;;;;;;;;;;;;;;;;;;;;
2023/05/01 12:37:55;;;;;;;7.38;2.47;;;23.30;55.20;;;;;;4782227;29;20140;-89
2023/05/01 12:41:09;;;;;;;;;;;;;;;;;;;;;
2023/05/01 12:48:36;;;;;;;;;;;;;;;;;;;;;
2023/05/01 12:55:21;;;;;;;;;;;;;;;;;;;;;
2023/05/01 13:02:17;;;;;;;5.97;1.83;;;24.30;53.70;;;;;;4747627;30;20060;-89
2023/05/01 13:05:45;;;;;;;5.40;1.80;;;24.40;52.40;;;;;;4812330;29;20033;-89
2023/05/01 13:09:04;;;;;;;6.82;1.92;;;24.30;51.60;;;;;;4839046;29;20086;-89
2023/05/01 13:12:12;;;;;;;5.22;1.70;;;24.40;51.10;;;;;;4838490;29;20597;-88
2023/05/01 13:25:26;;;;;;;;;;;;;;;;;;;;;
2023/05/01 13:28:14;;;;;;;;;;;;;;;;;;;;;
2023/05/01 13:30:59;;;;;;;5.22;1.40;;;24.00;50.80;;;;;;4916326;29;20122;-88
2023/05/01 13:33:55;;;;;;;5.03;1.80;;;24.00;52.10;;;;;;4916409;29;20054;-88
2023/05/01 13:36:21;;;;;;;5.40;1.65;;;24.10;52.50;;;;;;4916148;29;20047;-88
2023/05/01 13:38:54;;;;;;;6.28;1.50;;;24.30;52.30;;;;;;4933476;29;20052;-88
2023/05/01 13:41:22;;;;;;;4.97;1.48;;;24.60;51.00;;;;;;4901064;29;20042;-88